Terminal Aerodrome Forecast
Issued by NWS

Home | Current Version | Previous Version | Graphics & Text | Print | Product List | Glossary On
Versions: 1 2 3 4 5 6 7 8 9 10 11 12 13 14 15 16 17 18 19
240
FTUS42 KMHX 231502 AAC
TAFOAJ
TAF AMD
KOAJ 231502Z 2315/2412 23008G15KT P6SM BKN025
     FM231600 24007G15KT P6SM SCT035
     FM231800 22006KT P6SM SCT030 BKN090
     FM240100 VRB03KT 6SM -SHRA VCTS SCT020 BKN035CB
     FM240900 02004KT P6SM SCT015 BKN035
      AMD LTD TO CLD VIS AND WIND=

USA.gov is the U.S. government's official web portal to all federal, state and local government web resources and services.